createdAt,value
2023-03-06T00:00:40.788Z,9.50
2023-03-06T00:03:19.034Z,9.90
2023-03-06T00:05:47.996Z,7.40
2023-03-06T00:08:17.159Z,10.70
2023-03-06T00:10:46.607Z,12.60
2023-03-06T00:13:19.199Z,11.90
2023-03-06T00:15:49.137Z,13.10
2023-03-06T00:18:17.704Z,13.70
2023-03-06T00:20:46.392Z,12.10
2023-03-06T00:23:15.759Z,11.20
2023-03-06T00:25:46.212Z,10.10
2023-03-06T00:28:16.096Z,9.10
2023-03-06T00:33:15.225Z,9.60
2023-03-06T00:35:43.868Z,9.30
2023-03-06T00:38:15.254Z,9.20
2023-03-06T00:40:43.956Z,8.50
2023-03-06T00:43:12.869Z,8.80
2023-03-06T00:45:42.175Z,8.90
2023-03-06T00:48:10.797Z,9.90
2023-03-06T00:50:40.514Z,10.40
2023-03-06T00:53:11.672Z,19.80
2023-03-06T00:55:40.259Z,20.60
2023-03-06T00:58:08.827Z,21.90
2023-03-06T01:00:38.586Z,21.30
2023-03-06T01:03:08.336Z,19.50
2023-03-06T01:05:37.850Z,17.00
2023-03-06T01:08:09.386Z,13.20
2023-03-06T01:10:39.924Z,11.40
2023-03-06T01:13:09.049Z,10.90
2023-03-06T01:15:37.672Z,9.90
2023-03-06T01:18:06.443Z,10.10
2023-03-06T01:20:38.214Z,10.10
2023-03-06T01:23:07.412Z,9.70
2023-03-06T01:25:36.028Z,10.00
2023-03-06T01:28:05.349Z,9.00
2023-03-06T01:30:34.217Z,7.90
2023-03-06T01:33:03.093Z,13.60
2023-03-06T01:35:32.435Z,11.90
2023-03-06T01:38:01.247Z,12.80
2023-03-06T01:40:35.639Z,8.70
2023-03-06T01:43:27.098Z,16.40
2023-03-06T01:46:17.840Z,16.10
2023-03-06T01:48:48.865Z,17.70
2023-03-06T01:51:17.659Z,17.10
2023-03-06T01:53:47.643Z,14.40
2023-03-06T01:58:46.537Z,11.60
2023-03-06T02:01:15.996Z,12.90
2023-03-06T02:03:47.933Z,11.80
2023-03-06T02:06:20.037Z,10.50
2023-03-06T02:08:52.368Z,10.20
2023-03-06T02:11:23.867Z,12.50
2023-03-06T02:13:55.366Z,13.20
2023-03-06T02:16:29.983Z,12.50
2023-03-06T02:19:02.484Z,11.40
2023-03-06T02:21:34.468Z,17.50
2023-03-06T02:24:30.050Z,17.90
2023-03-06T02:27:01.158Z,12.50
2023-03-06T02:29:31.435Z,12.70
2023-03-06T02:32:02.143Z,12.40
2023-03-06T02:34:30.852Z,13.30
2023-03-06T02:37:05.874Z,11.90
2023-03-06T02:39:39.724Z,12.40
2023-03-06T02:42:09.037Z,11.70
2023-03-06T02:44:37.993Z,10.20
2023-03-06T02:47:08.063Z,10.50
2023-03-06T02:52:08.066Z,11.10
2023-03-06T02:54:36.749Z,11.30
2023-03-06T02:57:05.709Z,11.90
2023-03-06T02:59:35.145Z,11.00
2023-03-06T03:02:04.087Z,11.30
2023-03-06T03:04:33.056Z,11.70
2023-03-06T03:07:02.710Z,10.50
2023-03-06T03:09:37.516Z,9.90
2023-03-06T03:12:07.551Z,9.30
2023-03-06T03:14:36.255Z,9.40
2023-03-06T03:17:05.458Z,9.00
2023-03-06T03:19:34.797Z,10.50
2023-03-06T03:22:03.450Z,10.00
2023-03-06T03:24:32.467Z,11.20
2023-03-06T03:27:02.958Z,10.20
2023-03-06T03:29:32.632Z,8.90
2023-03-06T03:32:01.829Z,8.70
2023-03-06T03:34:30.982Z,8.50
2023-03-06T03:36:59.604Z,8.00
2023-03-06T03:39:28.560Z,7.90
2023-03-06T03:41:59.108Z,8.30
2023-03-06T03:44:28.369Z,7.70
2023-03-06T03:46:57.791Z,5.80
2023-03-06T03:49:26.797Z,6.70
2023-03-06T03:51:55.665Z,9.10
2023-03-06T03:54:25.076Z,8.60
2023-03-06T03:56:54.489Z,9.90
2023-03-06T03:59:27.195Z,9.60
2023-03-06T04:02:05.966Z,9.80
2023-03-06T04:04:39.108Z,9.40
2023-03-06T04:09:38.282Z,10.70
2023-03-06T04:12:08.319Z,9.40
2023-03-06T04:14:38.308Z,10.10
2023-03-06T04:17:07.224Z,8.40
2023-03-06T04:19:36.311Z,9.90
2023-03-06T04:22:05.353Z,10.60
2023-03-06T04:24:34.623Z,9.20
2023-03-06T04:27:04.514Z,11.70
2023-03-06T04:29:33.483Z,11.50
2023-03-06T04:32:02.868Z,10.90
2023-03-06T04:34:32.122Z,9.90
2023-03-06T04:37:01.204Z,7.60
2023-03-06T04:39:30.377Z,10.40
2023-03-06T04:41:59.314Z,10.10
2023-03-06T04:44:28.688Z,9.30
2023-03-06T04:46:58.682Z,10.00
2023-03-06T04:49:27.542Z,10.30
2023-03-06T04:51:56.441Z,10.10
2023-03-06T04:54:25.125Z,10.20
2023-03-06T04:56:53.989Z,8.60
2023-03-06T04:59:23.033Z,9.60
2023-03-06T05:01:51.962Z,8.90
2023-03-06T05:04:21.305Z,8.60
2023-03-06T05:06:50.192Z,8.50
2023-03-06T05:09:18.746Z,7.00
2023-03-06T05:11:47.958Z,6.90
2023-03-06T05:14:16.645Z,7.30
2023-03-06T05:16:47.680Z,7.50
2023-03-06T05:19:17.011Z,7.80
2023-03-06T05:21:45.686Z,5.40
2023-03-06T05:24:14.262Z,9.10
2023-03-06T05:26:43.565Z,7.90
2023-03-06T05:29:12.175Z,8.80
2023-03-06T05:31:40.756Z,8.00
2023-03-06T05:34:13.856Z,8.50
2023-03-06T05:36:43.206Z,8.60
2023-03-06T05:39:11.965Z,6.40
2023-03-06T05:41:40.902Z,7.60
2023-03-06T05:44:09.908Z,8.50
2023-03-06T05:46:38.813Z,7.50
2023-03-06T05:49:07.589Z,9.00
2023-03-06T05:51:36.477Z,7.70
2023-03-06T05:54:05.040Z,9.10
2023-03-06T05:56:33.776Z,8.40
2023-03-06T05:59:03.520Z,8.60
2023-03-06T06:01:32.146Z,8.70
2023-03-06T06:04:01.228Z,9.10
2023-03-06T06:06:30.405Z,9.90
2023-03-06T06:08:58.952Z,9.30
2023-03-06T06:11:27.809Z,8.40
2023-03-06T06:13:56.772Z,7.70
2023-03-06T06:16:25.284Z,8.10
2023-03-06T06:18:54.282Z,7.00
2023-03-06T06:21:23.175Z,7.00
2023-03-06T06:23:51.805Z,7.80
2023-03-06T06:26:20.537Z,7.10
2023-03-06T06:28:49.758Z,7.90
2023-03-06T06:31:19.103Z,8.80
2023-03-06T06:33:47.926Z,8.60
2023-03-06T06:36:19.676Z,7.90
2023-03-06T06:38:50.238Z,8.00
2023-03-06T06:41:53.084Z,8.40
2023-03-06T06:44:11.790Z,9.10
2023-03-06T06:49:30.438Z,14.40
2023-03-06T06:51:59.757Z,23.10
2023-03-06T06:54:28.485Z,24.50
2023-03-06T06:56:57.184Z,17.20
2023-03-06T06:59:26.248Z,15.20
2023-03-06T07:01:54.810Z,14.10
2023-03-06T07:04:24.055Z,14.20
2023-03-06T07:06:59.054Z,43.80
2023-03-06T07:09:28.375Z,27.30
2023-03-06T07:11:58.481Z,25.40
2023-03-06T07:14:27.598Z,18.20
2023-03-06T07:16:56.738Z,12.20
2023-03-06T07:19:25.721Z,13.30
2023-03-06T07:21:54.394Z,23.30
2023-03-06T07:24:23.699Z,29.50
2023-03-06T07:26:52.741Z,16.20
2023-03-06T07:29:21.351Z,18.10
2023-03-06T07:31:50.513Z,15.80
2023-03-06T07:34:19.366Z,15.70
2023-03-06T07:36:47.950Z,16.80
2023-03-06T07:39:17.041Z,16.80
2023-03-06T07:41:46.355Z,27.80
2023-03-06T07:44:14.922Z,24.70
2023-03-06T07:46:44.067Z,22.60
2023-03-06T07:49:13.661Z,19.70
2023-03-06T07:51:42.376Z,19.80
2023-03-06T07:54:11.552Z,21.10
2023-03-06T07:56:40.509Z,21.10
2023-03-06T07:59:11.103Z,19.80
2023-03-06T08:01:40.695Z,17.20
2023-03-06T08:04:09.671Z,18.00
2023-03-06T08:06:38.269Z,18.40
2023-03-06T08:09:07.415Z,19.30
2023-03-06T08:11:36.701Z,18.80
2023-03-06T08:14:34.504Z,15.40
2023-03-06T08:17:06.562Z,16.10
2023-03-06T08:19:35.483Z,16.50
2023-03-06T08:22:06.250Z,17.70
2023-03-06T08:24:35.177Z,17.40
2023-03-06T08:27:03.912Z,14.60
2023-03-06T08:29:32.683Z,17.10
2023-03-06T08:32:01.563Z,16.20
2023-03-06T08:34:30.338Z,16.70
2023-03-06T08:36:59.094Z,17.00
2023-03-06T08:39:28.168Z,17.90
2023-03-06T08:41:56.780Z,17.30
2023-03-06T08:44:25.428Z,19.40
2023-03-06T08:46:54.279Z,25.10
2023-03-06T08:49:22.879Z,23.20
2023-03-06T08:51:51.523Z,18.60
2023-03-06T08:54:20.747Z,18.40
2023-03-06T08:56:49.387Z,29.40
2023-03-06T08:59:18.298Z,21.90
2023-03-06T09:01:47.392Z,22.80
2023-03-06T09:04:15.966Z,19.70
2023-03-06T09:06:45.700Z,22.60
2023-03-06T09:09:14.762Z,20.00
2023-03-06T09:11:43.418Z,18.50
2023-03-06T09:14:12.249Z,16.40
2023-03-06T09:16:41.623Z,16.20
2023-03-06T09:19:10.371Z,17.30
2023-03-06T09:21:48.823Z,22.00
2023-03-06T09:24:24.159Z,18.40
2023-03-06T09:26:52.900Z,50.60
2023-03-06T09:29:22.181Z,42.50
2023-03-06T09:31:51.058Z,53.20
2023-03-06T09:34:20.072Z,42.50
2023-03-06T09:36:56.917Z,21.30
2023-03-06T09:39:27.621Z,26.30
2023-03-06T09:41:58.505Z,22.10
2023-03-06T09:44:34.397Z,25.60
2023-03-06T09:47:45.878Z,31.10
2023-03-06T09:50:29.880Z,26.70
2023-03-06T09:53:20.461Z,49.40
2023-03-06T09:55:58.598Z,50.40
2023-03-06T09:58:30.054Z,64.30
2023-03-06T10:01:11.691Z,50.20
2023-03-06T10:03:54.959Z,41.20
2023-03-06T10:06:23.924Z,30.80
2023-03-06T10:09:13.524Z,33.20
2023-03-06T10:11:47.610Z,35.10
2023-03-06T10:14:40.617Z,28.90
2023-03-06T10:17:17.379Z,17.90
2023-03-06T10:19:49.698Z,14.30
2023-03-06T10:22:46.102Z,14.10
2023-03-06T10:25:24.733Z,12.50
2023-03-06T10:28:11.884Z,12.90
2023-03-06T10:30:43.657Z,12.00
2023-03-06T10:36:29.515Z,29.30
2023-03-06T10:38:59.227Z,47.80
2023-03-06T10:41:32.636Z,28.40
2023-03-06T10:44:01.380Z,16.50
2023-03-06T10:46:31.548Z,18.40
2023-03-06T10:49:23.728Z,23.20
2023-03-06T10:52:26.132Z,23.60
2023-03-06T10:55:24.015Z,33.60
2023-03-06T10:57:52.840Z,20.50
2023-03-06T11:00:32.172Z,21.20
2023-03-06T11:03:24.856Z,23.30
2023-03-06T11:06:02.703Z,36.00
2023-03-06T11:08:31.866Z,25.80
2023-03-06T11:11:07.515Z,29.60
2023-03-06T11:13:39.567Z,42.70
2023-03-06T11:16:19.346Z,51.20
2023-03-06T11:19:18.968Z,48.20
2023-03-06T11:22:20.467Z,47.90
2023-03-06T11:24:53.947Z,40.00
2023-03-06T11:27:35.034Z,39.60
2023-03-06T11:30:09.470Z,34.30
2023-03-06T11:32:46.666Z,44.90
2023-03-06T11:35:28.648Z,97.10
2023-03-06T11:38:27.317Z,27.50
2023-03-06T11:41:01.749Z,17.60
2023-03-06T11:43:35.430Z,18.50
2023-03-06T11:46:26.530Z,14.90
2023-03-06T11:49:10.500Z,21.20
2023-03-06T11:51:48.503Z,18.20
2023-03-06T11:54:17.417Z,17.80
2023-03-06T11:57:18.494Z,16.00
2023-03-06T12:00:17.684Z,16.80
2023-03-06T12:02:58.417Z,19.70
2023-03-06T12:05:32.206Z,15.50
2023-03-06T12:08:39.210Z,21.10
2023-03-06T12:11:26.746Z,23.10
2023-03-06T12:14:10.537Z,16.60
2023-03-06T12:16:39.737Z,16.70
2023-03-06T12:19:30.301Z,20.90
2023-03-06T12:22:14.234Z,26.40
2023-03-06T12:25:09.794Z,25.60
2023-03-06T12:28:15.411Z,34.20
2023-03-06T12:31:18.391Z,30.90
2023-03-06T12:34:26.193Z,21.00
2023-03-06T12:37:01.662Z,20.90
2023-03-06T12:40:07.144Z,18.30
2023-03-06T12:43:10.625Z,20.90
2023-03-06T12:45:41.293Z,18.90
2023-03-06T12:48:18.211Z,15.90
2023-03-06T12:50:48.457Z,17.00
2023-03-06T12:53:32.377Z,15.10
2023-03-06T12:56:02.952Z,17.10
2023-03-06T12:58:31.653Z,13.60
2023-03-06T13:01:20.560Z,12.80
2023-03-06T13:03:58.014Z,89.00
2023-03-06T13:07:04.771Z,26.00
2023-03-06T13:09:55.378Z,21.00
2023-03-06T13:12:42.899Z,18.90
2023-03-06T13:15:42.576Z,16.20
2023-03-06T13:18:23.742Z,14.30
2023-03-06T13:20:56.656Z,16.90
2023-03-06T13:23:34.740Z,15.60
2023-03-06T13:29:38.628Z,16.20
2023-03-06T13:32:18.739Z,18.00
2023-03-06T13:34:49.534Z,23.20
2023-03-06T13:37:18.901Z,22.10
2023-03-06T13:40:00.669Z,26.40
2023-03-06T13:42:37.474Z,31.50
2023-03-06T13:45:08.910Z,25.50
2023-03-06T13:48:22.643Z,25.00
2023-03-06T13:50:52.226Z,20.50
2023-03-06T13:53:33.782Z,18.50
2023-03-06T13:56:17.748Z,21.30
2023-03-06T13:59:00.815Z,35.00
2023-03-06T14:01:47.188Z,33.80
2023-03-06T14:04:33.129Z,28.40
2023-03-06T14:07:22.282Z,23.30
2023-03-06T14:10:21.502Z,17.90
2023-03-06T14:12:50.203Z,12.90
2023-03-06T14:15:26.504Z,18.40
2023-03-06T14:18:06.423Z,17.70
2023-03-06T14:20:39.671Z,16.30
2023-03-06T14:23:17.030Z,14.80
2023-03-06T14:25:47.633Z,15.30
2023-03-06T14:28:25.481Z,18.30
2023-03-06T14:30:56.261Z,17.10
2023-03-06T14:33:32.669Z,15.60
2023-03-06T14:36:04.565Z,10.20
2023-03-06T14:38:38.406Z,13.40
2023-03-06T14:41:12.386Z,13.60
2023-03-06T14:43:42.081Z,11.90
2023-03-06T14:46:22.488Z,13.30
2023-03-06T14:48:52.801Z,13.90
2023-03-06T14:54:01.314Z,14.50
2023-03-06T14:56:35.551Z,16.50
2023-03-06T14:59:22.673Z,15.70
2023-03-06T15:01:58.829Z,14.40
2023-03-06T15:04:47.284Z,13.00
2023-03-06T15:07:30.825Z,20.40
2023-03-06T15:10:00.944Z,22.40
2023-03-06T15:12:34.226Z,18.90
2023-03-06T15:15:11.429Z,34.30
2023-03-06T15:17:41.071Z,19.40
2023-03-06T15:20:47.264Z,21.20
2023-03-06T15:23:21.647Z,31.70
2023-03-06T15:25:56.850Z,85.00
2023-03-06T15:28:39.826Z,28.90
2023-03-06T15:31:13.326Z,25.20
2023-03-06T15:33:42.175Z,26.00
2023-03-06T15:36:21.835Z,29.90
2023-03-06T15:38:51.324Z,16.20
2023-03-06T15:41:29.032Z,20.20
2023-03-06T15:44:03.101Z,25.40
2023-03-06T15:46:32.125Z,25.70
2023-03-06T15:49:05.252Z,24.90
2023-03-06T15:51:34.338Z,43.30
2023-03-06T15:54:11.895Z,40.60
2023-03-06T15:56:45.334Z,18.40
2023-03-06T15:59:24.185Z,20.50
2023-03-06T16:01:53.769Z,16.40
2023-03-06T16:04:22.712Z,33.20
2023-03-06T16:06:51.376Z,27.00
2023-03-06T16:09:20.261Z,21.70
2023-03-06T16:11:49.269Z,17.60
2023-03-06T16:14:21.808Z,19.80
2023-03-06T16:16:54.471Z,20.80
2023-03-06T16:19:27.425Z,19.40
2023-03-06T16:21:57.328Z,16.90
2023-03-06T16:24:27.085Z,15.20
2023-03-06T16:26:59.259Z,16.90
2023-03-06T16:29:29.863Z,20.20
2023-03-06T16:31:59.313Z,19.80
2023-03-06T16:34:30.990Z,21.00
2023-03-06T16:36:59.855Z,26.60
2023-03-06T16:39:28.704Z,36.70
2023-03-06T16:41:57.519Z,35.90
2023-03-06T16:44:26.280Z,32.90
2023-03-06T16:46:54.889Z,28.10
2023-03-06T16:49:25.441Z,35.40
2023-03-06T16:51:54.986Z,44.00
2023-03-06T16:54:26.443Z,29.40
2023-03-06T16:56:57.896Z,32.40
2023-03-06T16:59:32.191Z,40.50
2023-03-06T17:02:33.161Z,49.50
2023-03-06T17:05:12.572Z,68.60
2023-03-06T17:11:16.978Z,34.80
2023-03-06T17:13:49.473Z,42.80
2023-03-06T17:20:13.334Z,25.50
2023-03-06T17:22:42.373Z,24.60
2023-03-06T17:25:11.854Z,75.20
2023-03-06T17:27:40.741Z,30.00
2023-03-06T17:30:13.568Z,56.10
2023-03-06T17:32:42.721Z,51.70
2023-03-06T17:35:11.619Z,76.70
2023-03-06T17:37:40.448Z,53.80
2023-03-06T17:40:10.677Z,25.70
2023-03-06T17:42:39.468Z,30.70
2023-03-06T17:45:12.152Z,45.60
2023-03-06T17:47:40.960Z,48.30
2023-03-06T17:50:13.593Z,61.10
2023-03-06T17:52:42.844Z,29.50
2023-03-06T17:55:11.673Z,46.00
2023-03-06T17:57:42.755Z,35.10
2023-03-06T18:00:12.061Z,31.80
2023-03-06T18:02:57.224Z,41.10
2023-03-06T18:05:46.314Z,36.20
2023-03-06T18:08:39.229Z,37.20
2023-03-06T18:11:25.243Z,89.70
2023-03-06T18:14:15.935Z,86.70
2023-03-06T18:17:08.382Z,54.20
2023-03-06T18:22:42.827Z,37.80
2023-03-06T18:25:38.806Z,38.40
2023-03-06T18:28:35.200Z,29.40
2023-03-06T18:31:34.394Z,27.20
2023-03-06T18:34:23.535Z,26.10
2023-03-06T18:37:25.155Z,36.10
2023-03-06T18:40:22.367Z,59.00
2023-03-06T18:43:06.914Z,43.90
2023-03-06T18:45:36.434Z,39.00
2023-03-06T18:48:06.412Z,31.20
2023-03-06T18:50:39.136Z,26.60
2023-03-06T18:53:08.509Z,33.10
2023-03-06T18:55:37.686Z,28.20
2023-03-06T18:58:06.655Z,26.90
2023-03-06T19:00:35.889Z,20.00
2023-03-06T19:03:04.705Z,26.10
2023-03-06T19:05:33.815Z,26.70
2023-03-06T19:08:03.407Z,44.00
2023-03-06T19:10:38.417Z,33.00
2023-03-06T19:13:08.519Z,44.50
2023-03-06T19:15:48.592Z,29.50
2023-03-06T19:18:18.309Z,29.40
2023-03-06T19:20:46.924Z,25.20
2023-03-06T19:23:15.849Z,25.90
2023-03-06T19:25:55.069Z,25.20
2023-03-06T19:28:23.849Z,139.50
2023-03-06T19:30:53.302Z,70.40
2023-03-06T19:33:22.042Z,47.30
2023-03-06T19:35:51.354Z,40.20
2023-03-06T19:38:20.575Z,30.20
2023-03-06T19:40:51.793Z,33.60
2023-03-06T19:43:20.984Z,26.40
2023-03-06T19:45:49.655Z,29.40
2023-03-06T19:48:18.535Z,29.60
2023-03-06T19:50:47.769Z,27.20
2023-03-06T19:53:17.166Z,25.30
2023-03-06T19:55:46.087Z,31.90
2023-03-06T19:58:15.665Z,30.10
2023-03-06T20:00:45.074Z,27.20
2023-03-06T20:03:17.611Z,24.00
2023-03-06T20:05:50.756Z,28.40
2023-03-06T20:08:19.302Z,36.90
2023-03-06T20:10:48.462Z,32.40
2023-03-06T20:13:18.861Z,31.30
2023-03-06T20:15:47.477Z,25.20
2023-03-06T20:18:16.683Z,31.80
2023-03-06T20:20:45.982Z,47.20
2023-03-06T20:23:16.578Z,24.70
2023-03-06T20:25:48.754Z,44.00
2023-03-06T20:28:17.316Z,31.80
2023-03-06T20:30:46.452Z,36.90
2023-03-06T20:33:17.122Z,35.70
2023-03-06T20:35:45.782Z,37.40
2023-03-06T20:38:14.778Z,34.00
2023-03-06T20:40:44.547Z,34.10
2023-03-06T20:43:13.333Z,34.00
2023-03-06T20:45:41.918Z,33.50
2023-03-06T20:48:10.968Z,34.10
2023-03-06T20:50:39.559Z,36.80
2023-03-06T20:53:08.171Z,36.50
2023-03-06T20:55:38.301Z,43.70
2023-03-06T20:58:07.174Z,41.20
2023-03-06T21:00:36.102Z,59.80
2023-03-06T21:03:06.074Z,54.90
2023-03-06T21:05:34.988Z,48.30
2023-03-06T21:08:03.622Z,40.90
2023-03-06T21:10:33.094Z,37.60
2023-03-06T21:13:01.636Z,36.10
2023-03-06T21:15:31.275Z,40.30
2023-03-06T21:18:00.312Z,32.20
2023-03-06T21:20:28.840Z,30.60
2023-03-06T21:22:58.061Z,29.50
2023-03-06T21:25:27.588Z,32.40
2023-03-06T21:27:56.657Z,31.50
2023-03-06T21:30:25.505Z,33.70
2023-03-06T21:32:54.858Z,34.80
2023-03-06T21:35:23.486Z,43.00
2023-03-06T21:37:52.197Z,41.50
2023-03-06T21:40:21.642Z,28.80
2023-03-06T21:42:50.173Z,26.60
2023-03-06T21:45:19.145Z,35.20
2023-03-06T21:47:49.349Z,25.90
2023-03-06T21:50:18.272Z,33.40
2023-03-06T21:52:46.852Z,31.10
2023-03-06T21:55:16.442Z,29.20
2023-03-06T21:57:50.509Z,29.40
2023-03-06T22:00:20.563Z,27.90
2023-03-06T22:02:49.768Z,26.00
2023-03-06T22:05:18.928Z,27.50
2023-03-06T22:07:47.827Z,28.10
2023-03-06T22:10:16.457Z,27.10
2023-03-06T22:12:46.908Z,27.30
2023-03-06T22:15:16.196Z,30.50
2023-03-06T22:17:45.629Z,29.50
2023-03-06T22:20:14.288Z,28.20
2023-03-06T22:22:44.384Z,31.70
2023-03-06T22:25:15.147Z,27.80
2023-03-06T22:27:43.796Z,31.60
2023-03-06T22:30:13.662Z,32.10
2023-03-06T22:32:42.563Z,35.30
2023-03-06T22:35:11.826Z,32.90
2023-03-06T22:37:40.692Z,33.50
2023-03-06T22:40:10.164Z,35.30
2023-03-06T22:42:39.011Z,42.80
2023-03-06T22:45:08.895Z,44.70
2023-03-06T22:47:38.186Z,41.70
2023-03-06T22:50:08.722Z,53.00
2023-03-06T22:55:06.917Z,34.30
2023-03-06T22:57:36.330Z,30.50
2023-03-06T23:00:05.376Z,32.30
2023-03-06T23:02:35.421Z,23.20
2023-03-06T23:05:04.834Z,32.00
2023-03-06T23:07:33.742Z,42.00
2023-03-06T23:10:07.073Z,54.50
2023-03-06T23:12:54.783Z,33.60
2023-03-06T23:15:41.924Z,33.20
2023-03-06T23:18:30.396Z,33.20
2023-03-06T23:21:19.495Z,29.50
2023-03-06T23:24:08.055Z,29.00
2023-03-06T23:26:37.406Z,31.60
2023-03-06T23:29:06.059Z,22.40
2023-03-06T23:31:35.174Z,31.80
2023-03-06T23:34:04.341Z,32.80
2023-03-06T23:36:32.940Z,30.90
2023-03-06T23:39:02.238Z,35.40
2023-03-06T23:41:31.210Z,32.00
2023-03-06T23:44:00.130Z,26.60
2023-03-06T23:46:28.893Z,26.80
2023-03-06T23:48:57.483Z,26.20
2023-03-06T23:51:26.398Z,23.90
2023-03-06T23:53:59.073Z,29.10
2023-03-06T23:56:28.855Z,31.40
2023-03-06T23:58:57.605Z,46.20
